メインページ
METAR-TAF:

METAR-TAF

空港 :

コルカタ, インド

ネータージー・スバース・チャンドラ・ボース国際空港

緯度: 22-39N, 経度: 088-27E, 海抜: 4m

現時点の気象観測

当レポートは15分前の12:00(UTC)に作成
無風
気温 32°C
湿度 38%
気圧 1010 hPa
視程: 3200m

METAR: VECC 241200Z 00000KT 3200 FU NSC 32/16 Q1010 BECMG 3000 HZ

時間: 17:45 (12:15 UTC)

予報

当レポートは1時間15分前の11:00(UTC)に作成
予報は24日の 12時(UTC)から 25日の 18時(UTC)まで有効
西の風 5kt
視程: 3200m
24日の 16時(UTC)から 24日の 18時(UTC)まで徐々に
の風 kt
視程: 2000m
25日の 00時(UTC)から 25日の 02時(UTC)まで徐々に
視程: 1000m
浅い霧
25日の 03時(UTC)から 25日の 05時(UTC)まで徐々に
南/南西の風 5kt
視程: 2200m
25日の 07時(UTC)から 25日の 09時(UTC)まで徐々に
視程: 3500m
25日の 14時(UTC)から 25日の 16時(UTC)まで徐々に
の風 kt
視程: 2800m
煙霧

TAF: VECC 241100Z 2412/2518 27005KT 3200 FU NSC BECMG 2416/2418 00000KT 2000 BR BECMG 2500/2502 1000 MIFG BECMG 2503/2505 21005KT 2200 BR BECMG 2507/2509 3500 FU BECMG 2514/2516 00000KT 2800 HZ

4,000以上の空港の気象観測と天気予報(METAR報とTAF報)

利用可能な観測所は地図上に黄色い丸と赤い丸で示す。

丸の上にカーソルを重ねると観測所名を参照できる。

次にクリックすると気象観測と天気予報を参照できる。

マップの切り替え:黒色「×」印の緑ボタンをクリックして拡大、「-」印の緑ボタンをクリックして縮小、緑色の三角印をクリックして隣りの地図に切り替え


METAR-TAF: